Time;durP1;ratioP1;P1;durP2;ratioP2;P2;SDS_P1;SDS_P2;PMS_P1;PMS_P2;Temp;Humidity;BMP_temperature;BMP_pressure;BME280_temperature;BME280_humidity;BME280_pressure;Samples;Min_cycle;Max_cycle;Signal;HPM_P1;HPM_P2
2021/01/06 00:01:41;;;;;;;8.88;4.47;;;1.60;99.90;;;;;;5106449;28;20050;-62
2021/01/06 00:04:08;;;;;;;9.00;4.28;;;1.60;99.90;;;;;;5106353;28;20044;-62
2021/01/06 00:06:37;;;;;;;5.85;3.30;;;1.70;99.90;;;;;;5106016;28;20067;-62
2021/01/06 00:09:05;;;;;;;7.65;4.32;;;1.60;99.90;;;;;;5106090;28;20182;-62
2021/01/06 00:11:36;;;;;;;9.52;3.85;;;1.60;99.90;;;;;;5106201;28;20040;-62
2021/01/06 00:14:07;;;;;;;6.85;4.18;;;1.60;99.90;;;;;;5106096;28;20407;-62
2021/01/06 00:16:33;;;;;;;9.00;3.65;;;1.70;99.90;;;;;;5106145;28;20052;-62
2021/01/06 00:18:59;;;;;;;7.90;4.28;;;1.60;99.90;;;;;;5105935;28;20544;-61
2021/01/06 00:21:25;;;;;;;9.95;4.40;;;1.70;99.90;;;;;;5105898;28;20070;-61
2021/01/06 00:23:51;;;;;;;10.48;4.68;;;1.60;99.90;;;;;;5106057;28;20044;-63
2021/01/06 00:26:16;;;;;;;12.07;3.92;;;2.30;99.90;;;;;;5106009;28;20072;-62
2021/01/06 00:28:42;;;;;;;15.20;4.55;;;1.60;99.90;;;;;;5106117;28;20051;-63
2021/01/06 00:31:08;;;;;;;13.75;4.00;;;1.70;99.90;;;;;;5106241;28;20060;-62
2021/01/06 00:33:36;;;;;;;10.27;3.90;;;1.70;99.90;;;;;;5105452;28;20050;-62
2021/01/06 00:36:16;;;;;;;13.10;6.28;;;1.70;99.90;;;;;;5105959;28;20052;-63
2021/01/06 00:38:42;;;;;;;10.10;4.30;;;1.70;99.90;;;;;;5105749;28;20461;-63
2021/01/06 00:41:08;;;;;;;11.77;4.80;;;1.80;99.90;;;;;;5106016;28;20104;-62
2021/01/06 00:43:33;;;;;;;10.40;4.57;;;1.80;99.90;;;;;;5105914;28;20100;-63
2021/01/06 00:45:59;;;;;;;8.82;5.13;;;1.80;99.90;;;;;;5105868;28;20059;-63
2021/01/06 00:48:25;;;;;;;10.10;4.60;;;1.70;99.90;;;;;;5105608;28;20048;-63
2021/01/06 00:50:51;;;;;;;13.38;5.18;;;1.70;99.90;;;;;;5105888;28;20044;-62
2021/01/06 00:53:23;;;;;;;10.98;4.38;;;1.80;99.90;;;;;;5105975;28;20044;-62
2021/01/06 00:55:54;;;;;;;13.30;4.13;;;2.20;99.90;;;;;;5105719;28;20052;-62
2021/01/06 00:58:20;;;;;;;7.65;3.65;;;1.80;99.90;;;;;;5105622;28;20093;-63
2021/01/06 01:00:46;;;;;;;12.98;5.00;;;1.80;99.90;;;;;;5105858;28;20052;-62
2021/01/06 01:03:13;;;;;;;8.00;4.13;;;1.90;99.90;;;;;;5105559;28;20040;-63
2021/01/06 01:05:39;;;;;;;10.02;5.15;;;1.80;99.90;;;;;;5106140;28;20046;-63
2021/01/06 01:08:07;;;;;;;11.52;5.07;;;1.80;99.90;;;;;;5109542;28;20055;-62
2021/01/06 01:10:38;;;;;;;;;;;1.80;99.90;;;;;;5109776;28;20047;-63
2021/01/06 01:13:10;;;;;;;9.82;4.75;;;1.80;99.90;;;;;;5109280;28;19920;-63
2021/01/06 01:15:38;;;;;;;12.15;5.00;;;1.80;99.90;;;;;;5109249;28;20048;-63
2021/01/06 01:18:05;;;;;;;14.20;5.40;;;1.90;99.90;;;;;;5109103;28;20059;-62
2021/01/06 01:20:32;;;;;;;12.32;4.40;;;1.80;99.90;;;;;;5109197;28;20070;-62
2021/01/06 01:22:58;;;;;;;14.45;5.15;;;1.90;99.90;;;;;;5109123;28;20126;-63
2021/01/06 01:25:27;;;;;;;10.13;4.80;;;1.90;99.90;;;;;;5109099;28;20052;-62
2021/01/06 01:27:54;;;;;;;11.35;5.38;;;2.00;99.90;;;;;;5108941;28;20057;-62
2021/01/06 01:30:23;;;;;;;13.02;5.38;;;1.90;99.90;;;;;;5109000;28;20057;-63
2021/01/06 01:32:50;;;;;;;12.88;5.30;;;1.90;99.90;;;;;;5108899;28;20063;-62
2021/01/06 01:35:22;;;;;;;16.50;5.75;;;2.00;99.90;;;;;;5108792;28;20067;-62
2021/01/06 01:37:48;;;;;;;13.13;5.53;;;1.90;99.90;;;;;;5108773;28;20060;-62
2021/01/06 01:40:25;;;;;;;12.38;5.68;;;2.00;99.90;;;;;;5108907;28;20047;-62
2021/01/06 01:42:53;;;;;;;9.38;5.65;;;1.90;99.90;;;;;;5108364;28;20066;-62
2021/01/06 01:45:26;;;;;;;12.15;6.13;;;1.90;99.90;;;;;;5108511;28;20412;-62
2021/01/06 01:48:01;;;;;;;11.43;5.22;;;1.90;99.90;;;;;;5108856;28;20055;-62
2021/01/06 01:50:28;;;;;;;13.65;5.10;;;2.20;99.90;;;;;;5108528;28;20552;-63
2021/01/06 01:53:01;;;;;;;11.30;5.18;;;2.00;99.90;;;;;;5108505;28;20046;-62
2021/01/06 01:55:28;;;;;;;8.70;4.97;;;2.00;99.90;;;;;;5108322;28;20044;-62
2021/01/06 01:58:01;;;;;;;14.38;5.65;;;2.00;99.90;;;;;;5108408;28;20121;-62
2021/01/06 02:00:31;;;;;;;16.80;5.45;;;2.00;99.90;;;;;;5108562;28;20054;-62
2021/01/06 02:03:11;;;;;;;9.75;5.65;;;2.00;99.90;;;;;;5108301;28;20040;-62
2021/01/06 02:05:58;;;;;;;11.68;5.65;;;1.90;99.90;;;;;;5108315;28;20040;-62
2021/01/06 02:08:34;;;;;;;12.80;5.53;;;2.00;99.90;;;;;;5108648;28;20063;-62
2021/01/06 02:11:12;;;;;;;14.20;5.95;;;2.00;99.90;;;;;;5108248;28;20044;-62
2021/01/06 02:14:06;;;;;;;13.32;5.32;;;2.20;99.90;;;;;;5108214;28;20108;-62
2021/01/06 02:16:59;;;;;;;9.38;5.15;;;2.00;99.90;;;;;;5107961;28;20115;-62
2021/01/06 02:19:33;;;;;;;11.68;6.10;;;2.00;99.90;;;;;;5107335;28;20072;-62
2021/01/06 02:21:59;;;;;;;10.95;5.70;;;2.00;99.90;;;;;;5107875;28;20062;-62
2021/01/06 02:24:25;;;;;;;9.07;4.93;;;2.00;99.90;;;;;;5107784;28;20051;-62
2021/01/06 02:26:51;;;;;;;13.50;5.38;;;2.00;99.90;;;;;;5108162;28;20128;-62
2021/01/06 02:29:17;;;;;;;10.93;5.28;;;2.00;99.90;;;;;;5108184;28;20063;-62
2021/01/06 02:31:43;;;;;;;11.95;5.63;;;2.00;99.90;;;;;;5107773;28;20059;-62
2021/01/06 02:34:10;;;;;;;9.82;5.65;;;1.90;99.90;;;;;;5107740;28;20040;-62
2021/01/06 02:36:37;;;;;;;13.67;6.30;;;1.90;99.90;;;;;;5107398;28;20044;-62
2021/01/06 02:39:06;;;;;;;10.85;5.70;;;1.90;99.90;;;;;;5107575;28;20294;-62
2021/01/06 02:41:32;;;;;;;16.60;6.82;;;1.90;99.90;;;;;;5107645;28;20052;-62
2021/01/06 02:43:58;;;;;;;14.48;6.40;;;1.90;99.90;;;;;;5107638;28;20068;-61
2021/01/06 02:46:25;;;;;;;13.10;5.72;;;1.90;99.90;;;;;;5107515;28;20104;-62
2021/01/06 02:48:51;;;;;;;11.43;6.40;;;2.20;99.90;;;;;;5107473;28;20036;-62
2021/01/06 02:51:50;;;;;;;12.50;6.25;;;1.90;99.90;;;;;;5123189;28;20433;-62
2021/01/06 02:54:28;;;;;;;14.57;5.75;;;1.90;99.90;;;;;;5107379;28;20115;-62
2021/01/06 02:56:57;;;;;;;11.05;5.53;;;2.00;99.90;;;;;;5107366;28;20128;-62
2021/01/06 02:59:29;;;;;;;11.10;4.75;;;2.00;99.90;;;;;;5107248;28;20040;-62
2021/01/06 03:01:56;;;;;;;12.77;5.68;;;1.60;99.90;;;;;;5107553;28;20055;-62
2021/01/06 03:04:25;;;;;;;11.93;5.30;;;2.00;99.90;;;;;;5107058;28;20103;-62
2021/01/06 03:06:59;;;;;;;12.75;5.57;;;2.00;99.90;;;;;;5107000;28;20309;-62
2021/01/06 03:09:42;;;;;;;9.80;5.15;;;2.00;99.90;;;;;;5107093;28;20097;-62
2021/01/06 03:12:22;;;;;;;11.48;4.47;;;2.10;99.90;;;;;;5107050;28;20056;-62
2021/01/06 03:14:48;;;;;;;8.80;4.40;;;2.10;99.90;;;;;;5106842;28;20040;-62
2021/01/06 03:17:16;;;;;;;10.70;3.75;;;2.10;99.90;;;;;;5106957;28;20059;-62
2021/01/06 03:19:45;;;;;;;10.65;5.63;;;2.20;99.90;;;;;;5106882;28;20054;-62
2021/01/06 03:22:14;;;;;;;12.50;4.63;;;2.20;99.90;;;;;;5107181;28;20055;-62
2021/01/06 03:24:45;;;;;;;13.68;5.15;;;2.20;99.90;;;;;;5106721;28;20103;-62
2021/01/06 03:27:12;;;;;;;9.13;3.97;;;2.10;99.90;;;;;;5106676;28;20097;-62
2021/01/06 03:29:41;;;;;;;9.45;3.50;;;2.20;99.90;;;;;;5105750;28;20047;-61
2021/01/06 03:32:19;;;;;;;14.77;5.05;;;2.20;99.90;;;;;;5106619;28;20059;-61
2021/01/06 03:34:52;;;;;;;11.02;4.97;;;2.20;99.90;;;;;;5106770;28;20039;-61
2021/01/06 03:37:25;;;;;;;7.75;3.78;;;2.10;99.90;;;;;;5106400;28;20062;-62
2021/01/06 03:40:01;;;;;;;8.77;4.20;;;2.10;99.90;;;;;;5106549;28;20051;-62
2021/01/06 03:42:29;;;;;;;11.32;5.07;;;2.20;99.90;;;;;;5106674;28;20059;-62
2021/01/06 03:44:55;;;;;;;7.68;3.63;;;2.10;99.90;;;;;;5106494;28;20068;-62
2021/01/06 03:47:27;;;;;;;8.80;5.05;;;2.10;99.90;;;;;;5106474;28;20483;-62
2021/01/06 03:50:07;;;;;;;16.27;5.30;;;2.30;99.90;;;;;;5106364;28;20525;-62
2021/01/06 03:53:11;;;;;;;9.70;4.43;;;2.00;99.90;;;;;;5106380;28;20503;-62
2021/01/06 03:55:52;;;;;;;9.07;4.90;;;2.00;99.90;;;;;;5106222;28;20115;-62
2021/01/06 03:58:40;;;;;;;6.95;4.00;;;2.00;99.90;;;;;;5106239;28;20166;-62
2021/01/06 04:01:32;;;;;;;14.20;3.55;;;2.00;99.90;;;;;;5104977;28;20052;-62
2021/01/06 04:04:20;;;;;;;8.90;4.55;;;2.10;99.90;;;;;;5106102;28;20040;-62
2021/01/06 04:06:50;;;;;;;7.88;3.88;;;2.10;99.90;;;;;;5106210;28;20044;-62
2021/01/06 04:09:25;;;;;;;9.75;4.63;;;2.00;99.90;;;;;;5106530;28;20103;-62
2021/01/06 04:12:01;;;;;;;8.20;4.05;;;2.00;99.90;;;;;;5106197;28;20110;-62
2021/01/06 04:14:27;;;;;;;11.40;3.80;;;2.00;99.90;;;;;;5105976;28;20044;-62
2021/01/06 04:16:52;;;;;;;7.82;3.53;;;2.00;99.90;;;;;;5106155;28;20108;-62
2021/01/06 04:19:18;;;;;;;7.57;3.20;;;2.00;99.90;;;;;;5105858;28;20044;-61
2021/01/06 04:21:44;;;;;;;10.48;4.45;;;2.00;99.90;;;;;;5106095;28;20078;-62
2021/01/06 04:24:13;;;;;;;9.13;3.83;;;2.00;99.90;;;;;;5106133;28;20044;-62
2021/01/06 04:26:40;;;;;;;8.65;4.88;;;2.00;99.90;;;;;;5105997;28;20555;-61
2021/01/06 04:29:07;;;;;;;6.30;3.85;;;2.00;99.90;;;;;;5106054;28;20044;-61
2021/01/06 04:31:33;;;;;;;8.60;4.00;;;1.90;99.90;;;;;;5105945;28;20055;-62
2021/01/06 04:33:59;;;;;;;7.10;3.53;;;1.90;99.90;;;;;;5105998;28;20040;-62
2021/01/06 04:36:28;;;;;;;10.85;3.92;;;1.90;99.90;;;;;;5105738;28;20397;-61
2021/01/06 04:38:58;;;;;;;12.70;3.90;;;1.90;99.90;;;;;;5105831;28;20063;-62
2021/01/06 04:41:36;;;;;;;11.07;4.00;;;1.90;99.90;;;;;;5107581;28;20118;-61
2021/01/06 04:44:17;;;;;;;12.68;4.15;;;1.90;99.90;;;;;;5110017;28;20043;-62
2021/01/06 04:47:16;;;;;;;11.75;4.57;;;1.90;99.90;;;;;;5109669;28;20418;-61
2021/01/06 04:50:00;;;;;;;10.20;3.55;;;1.80;99.90;;;;;;5108661;28;20048;-62
2021/01/06 04:52:53;;;;;;;9.85;3.67;;;1.90;99.90;;;;;;5109621;28;20048;-61
2021/01/06 04:56:03;;;;;;;8.45;3.90;;;1.90;99.90;;;;;;5109545;28;20044;-61
2021/01/06 04:58:47;;;;;;;8.82;4.57;;;1.80;99.90;;;;;;5108628;28;20060;-62
2021/01/06 05:01:31;;;;;;;8.95;4.82;;;1.80;99.90;;;;;;5109514;28;20051;-62
2021/01/06 05:04:21;;;;;;;11.25;4.43;;;1.80;99.90;;;;;;5109594;28;20044;-61
2021/01/06 05:06:52;;;;;;;11.95;4.28;;;1.80;99.90;;;;;;5109373;28;20121;-61
2021/01/06 05:09:25;;;;;;;9.35;4.05;;;1.70;99.90;;;;;;5109427;28;20044;-62
2021/01/06 05:12:07;;;;;;;10.57;3.80;;;1.90;99.90;;;;;;5109252;28;20051;-62
2021/01/06 05:14:41;;;;;;;6.63;3.25;;;1.80;99.90;;;;;;5109494;28;20416;-62
2021/01/06 05:17:09;;;;;;;11.75;3.15;;;1.80;99.90;;;;;;5109179;28;20055;-62
2021/01/06 05:19:35;;;;;;;8.35;3.50;;;1.80;99.90;;;;;;5109302;28;20112;-62
2021/01/06 05:22:03;;;;;;;8.80;3.92;;;1.90;99.90;;;;;;5109091;28;20071;-62
2021/01/06 05:24:45;;;;;;;10.43;3.17;;;2.00;99.90;;;;;;5108952;28;20044;-62
2021/01/06 05:27:13;;;;;;;9.32;3.53;;;1.90;99.90;;;;;;5109009;28;20044;-62
2021/01/06 05:29:44;;;;;;;7.88;3.53;;;1.90;99.90;;;;;;5109003;28;20036;-62
2021/01/06 05:32:15;;;;;;;3.50;2.35;;;1.90;99.90;;;;;;5108953;28;20158;-62
2021/01/06 05:34:41;;;;;;;12.63;3.45;;;2.00;99.90;;;;;;5109014;28;20044;-62
2021/01/06 05:37:13;;;;;;;5.85;2.78;;;1.80;99.90;;;;;;5108536;28;20059;-62
2021/01/06 05:39:39;;;;;;;10.23;3.35;;;2.00;99.90;;;;;;5108710;28;20044;-62
2021/01/06 05:42:13;;;;;;;6.60;2.88;;;2.00;99.90;;;;;;5108838;28;20138;-62
2021/01/06 05:44:39;;;;;;;7.20;3.22;;;2.10;99.90;;;;;;5108571;28;20107;-62
2021/01/06 05:47:15;;;;;;;11.38;3.10;;;2.20;99.90;;;;;;5108727;28;20052;-62
2021/01/06 05:49:40;;;;;;;10.63;3.20;;;2.40;99.90;;;;;;5109053;28;20044;-62
2021/01/06 05:52:10;;;;;;;7.13;3.00;;;2.00;99.90;;;;;;5107986;28;20055;-62
2021/01/06 05:54:42;;;;;;;8.18;3.03;;;2.10;99.90;;;;;;5108089;28;20039;-62
2021/01/06 05:57:32;;;;;;;10.32;2.78;;;2.10;99.90;;;;;;5108360;28;20048;-62
2021/01/06 06:00:29;;;;;;;8.15;2.70;;;2.10;99.90;;;;;;5108263;28;20040;-62
2021/01/06 06:03:22;;;;;;;7.68;2.50;;;2.10;99.90;;;;;;5108340;28;20047;-62
2021/01/06 06:06:29;;;;;;;6.57;3.25;;;2.10;99.90;;;;;;5108331;28;20123;-62
2021/01/06 06:08:58;;;;;;;8.10;3.22;;;2.10;99.90;;;;;;5107805;28;20056;-62
2021/01/06 06:11:49;;;;;;;10.27;2.47;;;2.10;99.90;;;;;;5108232;28;20048;-62
2021/01/06 06:14:26;;;;;;;7.20;2.70;;;2.10;99.90;;;;;;5108105;28;20040;-62
2021/01/06 06:17:03;;;;;;;9.83;2.80;;;2.10;99.90;;;;;;5108218;28;20067;-62
2021/01/06 06:19:47;;;;;;;5.03;2.85;;;2.10;99.90;;;;;;5107893;28;20323;-62
2021/01/06 06:22:24;;;;;;;6.65;2.55;;;2.00;99.90;;;;;;5108035;28;20048;-62
2021/01/06 06:24:59;;;;;;;8.23;3.22;;;2.10;99.90;;;;;;5108045;28;20044;-62
2021/01/06 06:27:47;;;;;;;9.40;2.90;;;2.10;99.90;;;;;;5107843;28;20054;-62
2021/01/06 06:30:25;;;;;;;8.85;2.50;;;2.00;99.90;;;;;;5107898;28;20044;-62
2021/01/06 06:32:51;;;;;;;7.82;3.42;;;2.00;99.90;;;;;;5107821;28;20095;-62
2021/01/06 06:35:35;;;;;;;12.05;3.17;;;2.10;99.90;;;;;;5107697;28;20048;-62
2021/01/06 06:38:04;;;;;;;8.15;3.72;;;2.00;99.90;;;;;;5107402;28;20075;-62
2021/01/06 06:40:49;;;;;;;11.23;3.58;;;2.00;99.90;;;;;;5107776;28;20044;-62
2021/01/06 06:43:31;;;;;;;8.50;3.20;;;2.30;99.90;;;;;;5107685;28;20533;-62
2021/01/06 06:46:26;;;;;;;13.80;2.90;;;2.00;99.90;;;;;;5107361;28;20040;-62
2021/01/06 06:49:11;;;;;;;16.15;4.55;;;2.00;99.90;;;;;;5106975;28;20048;-62
2021/01/06 06:51:51;;;;;;;19.17;7.28;;;2.20;99.90;;;;;;5107443;28;20165;-62
2021/01/06 06:54:46;;;;;;;20.80;8.75;;;2.00;99.90;;;;;;5107335;28;20484;-62
2021/01/06 06:57:35;;;;;;;15.20;6.85;;;2.00;99.90;;;;;;5107404;28;20048;-62
2021/01/06 07:00:24;;;;;;;12.57;5.33;;;2.00;99.90;;;;;;5107309;28;20055;-62
2021/01/06 07:02:58;;;;;;;;;;;1.90;99.90;;;;;;5107683;28;20040;-62
2021/01/06 07:05:36;;;;;;;6.88;2.97;;;2.00;99.90;;;;;;5106896;28;19925;-62
2021/01/06 07:08:08;;;;;;;8.30;2.90;;;2.00;99.90;;;;;;5107021;28;20099;-62
2021/01/06 07:10:45;;;;;;;15.82;3.30;;;1.90;99.90;;;;;;5106961;28;20139;-62
2021/01/06 07:13:19;;;;;;;8.43;4.40;;;1.90;99.90;;;;;;5106924;28;20044;-62
2021/01/06 07:15:51;;;;;;;8.43;2.80;;;1.90;99.90;;;;;;5106874;28;20126;-62
2021/01/06 07:18:43;;;;;;;8.25;3.47;;;1.90;99.90;;;;;;5106666;28;20051;-62
2021/01/06 07:21:12;;;;;;;8.00;3.60;;;1.90;99.90;;;;;;5106782;28;20052;-62
2021/01/06 07:23:50;;;;;;;12.52;3.25;;;2.00;99.90;;;;;;5106979;28;20069;-62
2021/01/06 07:26:33;;;;;;;8.27;3.55;;;2.00;99.90;;;;;;5106726;28;20051;-62
2021/01/06 07:29:05;;;;;;;5.68;2.78;;;1.90;99.90;;;;;;5106600;28;20105;-62
2021/01/06 07:31:52;;;;;;;8.70;3.65;;;2.00;99.90;;;;;;5106514;28;20036;-62
2021/01/06 07:34:38;;;;;;;8.45;3.13;;;2.00;99.90;;;;;;5106398;28;20047;-62
2021/01/06 07:37:10;;;;;;;9.65;3.30;;;2.00;99.90;;;;;;5106315;28;20079;-62
2021/01/06 07:39:36;;;;;;;5.15;2.90;;;2.00;99.90;;;;;;5106277;28;20122;-62
2021/01/06 07:42:07;;;;;;;7.43;3.70;;;2.00;99.90;;;;;;5106436;28;20048;-62
2021/01/06 07:44:38;;;;;;;6.50;3.40;;;2.00;99.90;;;;;;5106466;28;20047;-62
2021/01/06 07:47:08;;;;;;;9.38;3.53;;;2.10;99.90;;;;;;5106553;28;20044;-60
2021/01/06 07:49:59;;;;;;;11.60;4.00;;;2.20;99.90;;;;;;5106129;28;20044;-60
2021/01/06 07:52:51;;;;;;;12.90;4.15;;;2.00;99.90;;;;;;5106373;28;20070;-61
2021/01/06 07:55:31;;;;;;;5.25;2.45;;;1.90;99.90;;;;;;5105495;28;20051;-61
2021/01/06 07:58:10;;;;;;;9.50;3.05;;;1.80;99.90;;;;;;5105543;28;20156;-61
2021/01/06 08:00:55;;;;;;;5.35;2.92;;;1.80;99.90;;;;;;5106087;28;20096;-60
2021/01/06 08:03:40;;;;;;;5.07;3.00;;;1.80;99.90;;;;;;5103737;28;20134;-60
2021/01/06 08:06:06;;;;;;;10.18;4.97;;;1.90;99.90;;;;;;5106159;28;20043;-61
2021/01/06 08:08:45;;;;;;;7.50;4.30;;;1.90;99.90;;;;;;5106308;28;20059;-61
2021/01/06 08:11:13;;;;;;;;;;;1.90;99.90;;;;;;5102155;28;20088;-61
2021/01/06 08:14:02;;;;;;;7.75;3.30;;;1.90;99.90;;;;;;5105431;28;20367;-61
2021/01/06 08:16:32;;;;;;;8.95;4.00;;;2.20;99.90;;;;;;5097909;28;20036;-62
2021/01/06 08:19:24;;;;;;;10.23;4.90;;;1.90;99.90;;;;;;5104746;28;20044;-65
2021/01/06 08:21:57;;;;;;;16.15;8.00;;;1.90;99.90;;;;;;5097562;28;20491;-65
2021/01/06 08:25:15;;;;;;;6.53;4.80;;;2.00;99.90;;;;;;5109170;28;20047;-65
2021/01/06 08:27:41;;;;;;;7.13;3.75;;;2.00;99.90;;;;;;5103441;28;20527;-65
2021/01/06 08:30:26;;;;;;;6.22;3.20;;;2.00;99.90;;;;;;5092840;28;20115;-65
2021/01/06 08:33:08;;;;;;;15.15;4.72;;;2.10;99.90;;;;;;5107636;28;20048;-65
2021/01/06 08:35:37;;;;;;;8.68;3.58;;;2.00;99.90;;;;;;5094813;28;20092;-64
2021/01/06 08:38:21;;;;;;;7.32;3.20;;;2.10;99.90;;;;;;5101449;28;20092;-65
2021/01/06 08:40:47;;;;;;;3.60;2.92;;;2.00;99.90;;;;;;5098799;28;20068;-65
2021/01/06 08:43:13;;;;;;;5.75;3.03;;;2.10;99.90;;;;;;5104609;28;20620;-64
2021/01/06 08:45:51;;;;;;;7.65;3.33;;;2.10;99.90;;;;;;5101503;28;20050;-65
2021/01/06 08:48:24;;;;;;;8.65;2.90;;;2.00;99.90;;;;;;5094543;28;20044;-64
2021/01/06 08:50:56;;;;;;;9.07;3.08;;;2.10;99.90;;;;;;5099716;28;20052;-65
2021/01/06 08:53:34;;;;;;;11.20;2.88;;;2.00;99.90;;;;;;5090635;28;20049;-65
2021/01/06 08:56:04;;;;;;;8.80;3.28;;;2.00;99.90;;;;;;5090335;28;21400;-65
2021/01/06 08:58:42;;;;;;;9.40;3.30;;;2.50;99.90;;;;;;5098769;28;20102;-65
2021/01/06 09:01:18;;;;;;;5.85;3.03;;;2.00;99.90;;;;;;5106589;28;20127;-65
2021/01/06 09:03:59;;;;;;;5.28;3.20;;;2.00;99.90;;;;;;5107148;28;20064;-65
2021/01/06 09:06:26;;;;;;;7.43;3.42;;;2.00;99.90;;;;;;5108400;28;20055;-65
2021/01/06 09:09:25;;;;;;;8.10;3.20;;;2.00;99.90;;;;;;5108811;28;20036;-64
2021/01/06 09:11:54;;;;;;;5.05;3.50;;;2.00;99.90;;;;;;5088415;28;20074;-65
2021/01/06 09:14:32;;;;;;;8.23;3.35;;;2.10;99.90;;;;;;5108296;28;20044;-64
2021/01/06 09:17:18;;;;;;;7.53;3.30;;;2.10;99.90;;;;;;5108359;28;20040;-64
2021/01/06 09:19:51;;;;;;;5.13;3.40;;;2.00;99.90;;;;;;5100533;28;20048;-65
2021/01/06 09:22:18;;;;;;;6.57;3.45;;;2.00;99.90;;;;;;5108453;28;20072;-65
2021/01/06 09:24:45;;;;;;;11.57;3.80;;;2.00;99.90;;;;;;5108172;28;20046;-64
2021/01/06 09:27:26;;;;;;;5.20;2.95;;;2.00;99.90;;;;;;5107590;28;20039;-65
2021/01/06 09:29:56;;;;;;;7.93;3.55;;;2.00;99.90;;;;;;5105638;28;20036;-69
2021/01/06 09:32:33;;;;;;;6.07;3.17;;;2.10;99.90;;;;;;5103155;28;20115;-70
2021/01/06 09:35:05;;;;;;;8.65;3.28;;;2.00;99.90;;;;;;5107596;28;20050;-68
2021/01/06 09:37:33;;;;;;;14.32;4.40;;;1.90;99.90;;;;;;5096257;28;20052;-66
2021/01/06 09:40:09;;;;;;;3.95;2.50;;;1.90;99.90;;;;;;5107685;28;20044;-67
2021/01/06 09:42:37;;;;;;;7.00;3.67;;;1.80;99.90;;;;;;5107217;28;20074;-70
2021/01/06 09:45:05;;;;;;;11.18;3.95;;;1.70;99.90;;;;;;5105044;28;20073;-69
2021/01/06 09:47:37;;;;;;;5.68;3.35;;;1.60;99.90;;;;;;5107810;28;20036;-70
2021/01/06 09:50:21;;;;;;;7.53;3.53;;;1.60;99.90;;;;;;5098505;28;20051;-70
2021/01/06 09:52:51;;;;;;;7.00;3.33;;;1.50;99.90;;;;;;5103650;28;20059;-69
2021/01/06 09:55:22;;;;;;;7.05;3.70;;;1.50;99.90;;;;;;5106996;28;20036;-69
2021/01/06 09:57:58;;;;;;;11.57;3.88;;;1.50;99.90;;;;;;5096018;28;20068;-70
2021/01/06 10:00:39;;;;;;;11.55;4.10;;;1.70;99.90;;;;;;5091133;28;20068;-72
2021/01/06 10:03:06;;;;;;;5.93;3.42;;;1.50;99.90;;;;;;5107897;28;20048;-59
2021/01/06 10:05:55;;;;;;;15.40;4.97;;;1.60;99.90;;;;;;5107386;28;20064;-72
2021/01/06 10:08:33;;;;;;;7.38;3.67;;;1.50;99.90;;;;;;5097257;28;20059;-71
2021/01/06 10:11:47;;;;;;;7.43;3.83;;;1.50;99.90;;;;;;5107584;28;20044;-68
2021/01/06 10:14:41;;;;;;;11.35;4.28;;;1.50;99.90;;;;;;5084898;28;20055;-69
2021/01/06 10:17:21;;;;;;;8.88;4.30;;;1.50;99.90;;;;;;5082908;28;20114;-73
2021/01/06 10:19:55;;;;;;;7.18;3.80;;;1.50;99.90;;;;;;5084888;28;20044;-75
2021/01/06 10:22:42;;;;;;;8.75;4.60;;;1.60;99.90;;;;;;5073409;28;20563;-73
2021/01/06 10:25:34;;;;;;;8.55;4.13;;;1.90;99.90;;;;;;5079657;28;20044;-72
2021/01/06 10:28:09;;;;;;;8.95;4.25;;;1.70;99.90;;;;;;5084626;28;20060;-72
2021/01/06 10:30:35;;;;;;;9.23;4.38;;;1.80;99.90;;;;;;5081131;28;20055;-66
2021/01/06 10:33:12;;;;;;;8.30;3.80;;;1.80;99.90;;;;;;5084121;28;20040;-73
2021/01/06 10:36:04;;;;;;;5.47;3.70;;;1.80;99.90;;;;;;5084223;28;20056;-72
2021/01/06 10:38:42;;;;;;;8.18;4.40;;;1.80;99.90;;;;;;5082153;28;20060;-75
2021/01/06 10:41:18;;;;;;;13.97;4.20;;;1.90;99.90;;;;;;5082729;28;20870;-76
2021/01/06 10:44:00;;;;;;;7.20;3.47;;;1.90;99.90;;;;;;5084499;28;20116;-74
2021/01/06 10:46:43;;;;;;;7.40;3.60;;;1.90;99.90;;;;;;5083777;28;20048;-75
2021/01/06 10:49:12;;;;;;;4.63;2.45;;;1.90;99.90;;;;;;5098938;28;20113;-74
2021/01/06 10:51:56;;;;;;;5.15;3.10;;;1.70;99.90;;;;;;5097808;28;20040;-74
2021/01/06 10:54:36;;;;;;;7.07;2.90;;;1.70;99.90;;;;;;5096182;28;20062;-70
2021/01/06 10:57:15;;;;;;;3.83;2.35;;;1.60;99.90;;;;;;5104778;28;20396;-69
2021/01/06 11:00:04;;;;;;;6.25;3.17;;;1.50;99.90;;;;;;5105072;28;20047;-69
2021/01/06 11:03:11;;;;;;;9.35;4.32;;;1.60;99.90;;;;;;5104208;28;20099;-69
2021/01/06 11:05:52;;;;;;;8.88;4.18;;;1.60;99.90;;;;;;5103886;28;20147;-65
2021/01/06 11:08:32;;;;;;;6.28;3.55;;;1.60;99.90;;;;;;5105223;28;20052;-71
2021/01/06 11:11:24;;;;;;;6.78;4.00;;;1.70;99.90;;;;;;5099481;28;20050;-74
2021/01/06 11:14:08;;;;;;;9.57;3.60;;;1.70;99.90;;;;;;5102507;28;20131;-70
2021/01/06 11:16:41;;;;;;;6.28;3.42;;;1.70;99.90;;;;;;5104266;28;20047;-69
2021/01/06 11:19:36;;;;;;;5.95;2.78;;;1.70;99.90;;;;;;5106215;28;20514;-67
2021/01/06 11:22:32;;;;;;;5.22;2.88;;;1.60;99.90;;;;;;5105161;28;20052;-67
2021/01/06 11:25:04;;;;;;;6.35;3.53;;;1.60;99.90;;;;;;5105289;28;20051;-66
2021/01/06 11:27:32;;;;;;;8.40;3.17;;;1.70;99.90;;;;;;5106355;28;20040;-65
2021/01/06 11:30:22;;;;;;;9.10;3.67;;;1.70;99.90;;;;;;5105635;28;20066;-66
2021/01/06 11:32:49;;;;;;;6.72;3.53;;;1.70;99.90;;;;;;5095624;28;20573;-71
2021/01/06 11:35:26;;;;;;;8.35;3.67;;;1.70;99.90;;;;;;5104148;28;20107;-66
2021/01/06 11:37:53;;;;;;;4.65;2.42;;;1.70;99.90;;;;;;5102378;28;20067;-67
2021/01/06 11:40:28;;;;;;;6.65;3.10;;;1.60;99.90;;;;;;5102763;28;20116;-69
2021/01/06 11:43:22;;;;;;;7.55;3.15;;;1.50;99.90;;;;;;5104895;28;20165;-71
2021/01/06 11:45:51;;;;;;;8.20;2.85;;;1.50;99.90;;;;;;5119838;28;20102;-74
2021/01/06 11:48:31;;;;;;;5.55;3.30;;;1.60;99.90;;;;;;5104840;28;20048;-70
2021/01/06 11:51:23;;;;;;;13.75;4.20;;;1.40;99.90;;;;;;5104746;28;20051;-70
2021/01/06 11:54:27;;;;;;;9.27;3.20;;;1.70;99.90;;;;;;5101246;28;20059;-75
2021/01/06 11:57:25;;;;;;;5.68;2.78;;;1.60;99.90;;;;;;5101431;28;20056;-80
2021/01/06 12:00:26;;;;;;;10.68;2.88;;;1.50;99.90;;;;;;5115155;28;20090;-75
2021/01/06 12:03:07;;;;;;;9.13;3.00;;;1.60;99.90;;;;;;5102081;28;20052;-70
2021/01/06 12:05:36;;;;;;;6.63;3.33;;;1.60;99.90;;;;;;5105864;28;20060;-70
2021/01/06 12:08:17;;;;;;;6.05;2.95;;;1.60;99.90;;;;;;5105652;28;20048;-71
2021/01/06 12:10:55;;;;;;;5.03;2.83;;;1.60;99.90;;;;;;5090817;28;20552;-70
2021/01/06 12:13:24;;;;;;;9.00;2.72;;;1.70;99.90;;;;;;5105610;28;20050;-70
2021/01/06 12:16:12;;;;;;;7.05;3.00;;;1.80;99.90;;;;;;5091005;28;20092;-70
2021/01/06 12:19:19;;;;;;;10.15;3.08;;;1.80;99.90;;;;;;5089933;28;20062;-70
2021/01/06 12:22:00;;;;;;;6.32;3.10;;;1.70;99.90;;;;;;5105603;28;20063;-70
2021/01/06 12:24:29;;;;;;;7.47;3.25;;;1.70;99.90;;;;;;5088875;28;20040;-70
2021/01/06 12:27:23;;;;;;;5.32;2.72;;;1.70;99.90;;;;;;5098529;28;20056;-70
2021/01/06 12:29:56;;;;;;;8.95;3.05;;;1.80;99.90;;;;;;5099736;28;20070;-69
2021/01/06 12:32:27;;;;;;;7.10;3.17;;;1.80;99.90;;;;;;5094874;28;20040;-70
2021/01/06 12:35:06;;;;;;;8.10;3.55;;;1.90;99.90;;;;;;5098742;28;20511;-69
2021/01/06 12:37:33;;;;;;;;;;;1.80;99.90;;;;;;5097518;28;20052;-70
2021/01/06 12:39:58;;;;;;;7.85;3.13;;;1.90;99.90;;;;;;5089507;28;19963;-69
2021/01/06 12:42:54;;;;;;;9.50;4.25;;;1.80;99.90;;;;;;5101785;28;20055;-69
2021/01/06 12:45:41;;;;;;;10.07;4.25;;;2.00;99.90;;;;;;5094827;28;20060;-69
2021/01/06 12:48:24;;;;;;;9.88;3.60;;;2.00;99.90;;;;;;5088536;28;20094;-69
2021/01/06 12:51:08;;;;;;;7.88;2.53;;;2.10;99.90;;;;;;5099159;28;20048;-70
2021/01/06 12:53:40;;;;;;;3.53;2.30;;;2.00;99.90;;;;;;5097568;28;20060;-71
2021/01/06 12:56:22;;;;;;;4.65;1.92;;;3.40;99.90;;;;;;5088407;28;20045;-69
2021/01/06 12:59:03;;;;;;;3.60;1.83;;;2.00;99.90;;;;;;5099188;28;20123;-69
2021/01/06 13:01:44;;;;;;;3.15;1.58;;;1.70;99.90;;;;;;5096715;28;20054;-69
2021/01/06 13:04:13;;;;;;;9.48;3.08;;;1.60;99.90;;;;;;5091942;28;20048;-69
2021/01/06 13:07:16;;;;;;;3.08;1.88;;;1.50;99.90;;;;;;5104375;28;20154;-69
2021/01/06 13:10:20;;;;;;;8.60;2.40;;;1.50;99.90;;;;;;5102361;28;20046;-69
2021/01/06 13:12:57;;;;;;;5.75;2.78;;;1.80;99.90;;;;;;5101230;28;20044;-77
2021/01/06 13:15:32;;;;;;;4.90;1.95;;;1.60;99.90;;;;;;5108460;28;20495;-78
2021/01/06 13:18:15;;;;;;;3.42;1.92;;;1.70;99.90;;;;;;5109109;28;20051;-75
2021/01/06 13:20:46;;;;;;;4.57;2.25;;;1.70;99.90;;;;;;5107701;28;20052;-73
2021/01/06 13:23:23;;;;;;;3.08;2.17;;;1.80;99.90;;;;;;5108682;28;20051;-76
2021/01/06 13:26:15;;;;;;;3.37;1.97;;;1.70;99.90;;;;;;5108420;28;20055;-76
2021/01/06 13:28:52;;;;;;;2.92;1.95;;;1.90;99.90;;;;;;5107608;28;20062;-77
2021/01/06 13:31:28;;;;;;;4.55;2.10;;;1.70;99.90;;;;;;5108106;28;20040;-77
2021/01/06 13:34:29;;;;;;;10.88;2.65;;;1.60;99.90;;;;;;5107686;28;20044;-75
2021/01/06 13:36:57;;;;;;;7.63;2.65;;;1.60;99.90;;;;;;5101017;28;20075;-72
2021/01/06 13:39:28;;;;;;;2.97;2.15;;;1.70;99.90;;;;;;5108148;28;20100;-72
2021/01/06 13:41:57;;;;;;;10.00;2.90;;;1.70;99.90;;;;;;5108195;28;20036;-73
2021/01/06 13:44:35;;;;;;;6.18;2.15;;;1.80;99.90;;;;;;5108583;28;20046;-72